sensor_id;sensor_type;location;lat;lon;timestamp;pressure;altitude;pressure_sealevel;temperature
55038;BMP280;40937;53.594;10.034;2022-12-31T00:02:05;100252.28;;;10.60
55038;BMP280;40937;53.594;10.034;2022-12-31T00:04:32;100262.84;;;10.60
55038;BMP280;40937;53.594;10.034;2022-12-31T00:06:58;100264.44;;;10.61
55038;BMP280;40937;53.594;10.034;2022-12-31T00:09:25;100267.66;;;10.63
55038;BMP280;40937;53.594;10.034;2022-12-31T00:11:52;100267.41;;;10.64
55038;BMP280;40937;53.594;10.034;2022-12-31T00:14:18;100275.88;;;10.66
55038;BMP280;40937;53.594;10.034;2022-12-31T00:16:45;100278.28;;;10.68
55038;BMP280;40937;53.594;10.034;2022-12-31T00:19:13;100277.81;;;10.71
55038;BMP280;40937;53.594;10.034;2022-12-31T00:21:40;100274.66;;;10.74
55038;BMP280;40937;53.594;10.034;2022-12-31T00:24:10;100287.84;;;10.74
55038;BMP280;40937;53.594;10.034;2022-12-31T00:26:36;100279.94;;;10.74
55038;BMP280;40937;53.594;10.034;2022-12-31T00:29:04;100287.63;;;10.76
55038;BMP280;40937;53.594;10.034;2022-12-31T00:31:33;100295.28;;;10.77
55038;BMP280;40937;53.594;10.034;2022-12-31T00:41:48;100298.88;;;10.88
55038;BMP280;40937;53.594;10.034;2022-12-31T00:44:15;100308.09;;;10.90
55038;BMP280;40937;53.594;10.034;2022-12-31T00:46:41;100304.69;;;10.90
55038;BMP280;40937;53.594;10.034;2022-12-31T00:49:08;100291.78;;;10.94
55038;BMP280;40937;53.594;10.034;2022-12-31T00:51:35;100311.88;;;10.95
55038;BMP280;40937;53.594;10.034;2022-12-31T00:54:02;100311.09;;;10.94
55038;BMP280;40937;53.594;10.034;2022-12-31T00:56:29;100310.03;;;10.95
55038;BMP280;40937;53.594;10.034;2022-12-31T00:58:58;100306.34;;;10.96
55038;BMP280;40937;53.594;10.034;2022-12-31T01:01:27;100303.47;;;10.98
55038;BMP280;40937;53.594;10.034;2022-12-31T01:03:57;100306.66;;;11.00
55038;BMP280;40937;53.594;10.034;2022-12-31T01:06:24;100314.09;;;11.03
55038;BMP280;40937;53.594;10.034;2022-12-31T01:08:51;100311.22;;;11.04
55038;BMP280;40937;53.594;10.034;2022-12-31T01:11:20;100310.94;;;11.06
55038;BMP280;40937;53.594;10.034;2022-12-31T01:13:50;100322.88;;;11.08
55038;BMP280;40937;53.594;10.034;2022-12-31T01:16:20;100315.75;;;11.09
55038;BMP280;40937;53.594;10.034;2022-12-31T01:18:47;100320.00;;;11.10
55038;BMP280;40937;53.594;10.034;2022-12-31T01:21:14;100316.28;;;11.11
55038;BMP280;40937;53.594;10.034;2022-12-31T01:28:22;100337.47;;;11.16
55038;BMP280;40937;53.594;10.034;2022-12-31T01:35:33;100348.41;;;11.25
55038;BMP280;40937;53.594;10.034;2022-12-31T01:38:16;100351.28;;;11.23
55038;BMP280;40937;53.594;10.034;2022-12-31T01:41:22;100350.81;;;11.26
55038;BMP280;40937;53.594;10.034;2022-12-31T01:45:10;100354.03;;;11.28
55038;BMP280;40937;53.594;10.034;2022-12-31T02:20:45;100338.25;;;11.39
55038;BMP280;40937;53.594;10.034;2022-12-31T02:23:51;100332.97;;;11.39
55038;BMP280;40937;53.594;10.034;2022-12-31T02:26:45;100335.63;;;11.39
55038;BMP280;40937;53.594;10.034;2022-12-31T02:32:20;100336.19;;;11.41
55038;BMP280;40937;53.594;10.034;2022-12-31T02:34:49;100329.63;;;11.43
55038;BMP280;40937;53.594;10.034;2022-12-31T02:37:19;100334.91;;;11.43
55038;BMP280;40937;53.594;10.034;2022-12-31T02:39:47;100338.09;;;11.45
55038;BMP280;40937;53.594;10.034;2022-12-31T02:42:14;100334.13;;;11.43
55038;BMP280;40937;53.594;10.034;2022-12-31T02:44:41;100332.03;;;11.45
55038;BMP280;40937;53.594;10.034;2022-12-31T02:47:26;100333.59;;;11.46
55038;BMP280;40937;53.594;10.034;2022-12-31T02:50:12;100325.69;;;11.46
55038;BMP280;40937;53.594;10.034;2022-12-31T02:52:51;100333.59;;;11.46
55038;BMP280;40937;53.594;10.034;2022-12-31T02:55:24;100329.09;;;11.46
55038;BMP280;40937;53.594;10.034;2022-12-31T02:57:59;100341.28;;;11.47
55038;BMP280;40937;53.594;10.034;2022-12-31T03:00:30;100331.50;;;11.48
55038;BMP280;40937;53.594;10.034;2022-12-31T03:11:17;100345.78;;;11.47
55038;BMP280;40937;53.594;10.034;2022-12-31T03:13:58;100354.72;;;11.46
55038;BMP280;40937;53.594;10.034;2022-12-31T03:16:24;100351.56;;;11.44
55038;BMP280;40937;53.594;10.034;2022-12-31T03:18:51;100350.50;;;11.45
55038;BMP280;40937;53.594;10.034;2022-12-31T03:21:31;100344.66;;;11.43
55038;BMP280;40937;53.594;10.034;2022-12-31T03:24:15;100342.50;;;11.40
55038;BMP280;40937;53.594;10.034;2022-12-31T03:27:01;100341.72;;;11.39
55038;BMP280;40937;53.594;10.034;2022-12-31T03:29:28;100334.84;;;11.38
55038;BMP280;40937;53.594;10.034;2022-12-31T03:31:54;100333.50;;;11.36
55038;BMP280;40937;53.594;10.034;2022-12-31T03:34:21;100338.78;;;11.36
55038;BMP280;40937;53.594;10.034;2022-12-31T03:36:48;100340.38;;;11.37
55038;BMP280;40937;53.594;10.034;2022-12-31T03:39:14;100351.75;;;11.37
55038;BMP280;40937;53.594;10.034;2022-12-31T03:41:41;100342.47;;;11.35
55038;BMP280;40937;53.594;10.034;2022-12-31T03:44:09;100340.88;;;11.34
55038;BMP280;40937;53.594;10.034;2022-12-31T03:46:35;100344.53;;;11.32
55038;BMP280;40937;53.594;10.034;2022-12-31T03:49:02;100348.22;;;11.31
55038;BMP280;40937;53.594;10.034;2022-12-31T03:51:29;100345.84;;;11.30
55038;BMP280;40937;53.594;10.034;2022-12-31T03:53:55;100343.47;;;11.28
55038;BMP280;40937;53.594;10.034;2022-12-31T03:56:22;100341.84;;;11.27
55038;BMP280;40937;53.594;10.034;2022-12-31T03:58:50;100334.97;;;11.26
55038;BMP280;40937;53.594;10.034;2022-12-31T04:01:18;100334.16;;;11.26
55038;BMP280;40937;53.594;10.034;2022-12-31T04:03:49;100340.25;;;11.26
55038;BMP280;40937;53.594;10.034;2022-12-31T04:06:15;100337.84;;;11.25
55038;BMP280;40937;53.594;10.034;2022-12-31T04:08:42;100336.25;;;11.24
55038;BMP280;40937;53.594;10.034;2022-12-31T04:11:09;100340.72;;;11.23
55038;BMP280;40937;53.594;10.034;2022-12-31T04:13:35;100344.41;;;11.22
55038;BMP280;40937;53.594;10.034;2022-12-31T04:16:02;100345.22;;;11.23
55038;BMP280;40937;53.594;10.034;2022-12-31T04:18:30;100348.13;;;11.21
55038;BMP280;40937;53.594;10.034;2022-12-31T04:21:00;100353.41;;;11.21
55038;BMP280;40937;53.594;10.034;2022-12-31T04:23:27;100361.84;;;11.23
55038;BMP280;40937;53.594;10.034;2022-12-31T04:25:54;100371.59;;;11.23
55038;BMP280;40937;53.594;10.034;2022-12-31T04:28:20;100368.19;;;11.22
55038;BMP280;40937;53.594;10.034;2022-12-31T04:30:47;100362.91;;;11.22
55038;BMP280;40937;53.594;10.034;2022-12-31T04:33:14;100374.25;;;11.23
55038;BMP280;40937;53.594;10.034;2022-12-31T04:35:42;100373.22;;;11.24
55038;BMP280;40937;53.594;10.034;2022-12-31T04:38:09;100372.41;;;11.23
55038;BMP280;40937;53.594;10.034;2022-12-31T04:40:36;100384.56;;;11.24
55038;BMP280;40937;53.594;10.034;2022-12-31T04:43:23;100375.03;;;11.23
55038;BMP280;40937;53.594;10.034;2022-12-31T04:45:49;100379.28;;;11.24
55038;BMP280;40937;53.594;10.034;2022-12-31T04:48:16;100375.63;;;11.25
55038;BMP280;40937;53.594;10.034;2022-12-31T04:50:45;100385.13;;;11.26
55038;BMP280;40937;53.594;10.034;2022-12-31T04:53:11;100373.53;;;11.27
55038;BMP280;40937;53.594;10.034;2022-12-31T04:55:39;100344.25;;;11.29
55038;BMP280;40937;53.594;10.034;2022-12-31T04:58:06;100354.03;;;11.28
55038;BMP280;40937;53.594;10.034;2022-12-31T05:00:33;100370.66;;;11.29
55038;BMP280;40937;53.594;10.034;2022-12-31T05:02:59;100369.88;;;11.28
55038;BMP280;40937;53.594;10.034;2022-12-31T05:05:26;100364.59;;;11.28
55038;BMP280;40937;53.594;10.034;2022-12-31T05:07:54;100368.53;;;11.31
55038;BMP280;40937;53.594;10.034;2022-12-31T05:10:21;100367.75;;;11.30
55038;BMP280;40937;53.594;10.034;2022-12-31T05:12:47;100364.59;;;11.28
55038;BMP280;40937;53.594;10.034;2022-12-31T05:15:14;100364.59;;;11.28
55038;BMP280;40937;53.594;10.034;2022-12-31T05:17:41;100348.16;;;11.26
55038;BMP280;40937;53.594;10.034;2022-12-31T05:20:08;100325.22;;;11.27
55038;BMP280;40937;53.594;10.034;2022-12-31T05:22:34;100326.81;;;11.28
55038;BMP280;40937;53.594;10.034;2022-12-31T05:25:04;100321.75;;;11.26
55038;BMP280;40937;53.594;10.034;2022-12-31T05:27:30;100317.84;;;11.29
55038;BMP280;40937;53.594;10.034;2022-12-31T05:29:57;100317.06;;;11.28
55038;BMP280;40937;53.594;10.034;2022-12-31T05:32:24;100309.63;;;11.25
55038;BMP280;40937;53.594;10.034;2022-12-31T05:34:51;100308.00;;;11.24
55038;BMP280;40937;53.594;10.034;2022-12-31T05:37:18;100308.25;;;11.23
55038;BMP280;40937;53.594;10.034;2022-12-31T05:39:45;100307.47;;;11.22
55038;BMP280;40937;53.594;10.034;2022-12-31T05:42:13;100314.31;;;11.23
55038;BMP280;40937;53.594;10.034;2022-12-31T05:44:39;100323.31;;;11.22
55038;BMP280;40937;53.594;10.034;2022-12-31T05:47:06;100333.84;;;11.22
55038;BMP280;40937;53.594;10.034;2022-12-31T05:49:32;100348.13;;;11.21
55038;BMP280;40937;53.594;10.034;2022-12-31T05:51:59;100365.22;;;11.19
55038;BMP280;40937;53.594;10.034;2022-12-31T05:54:26;100380.28;;;11.18
55038;BMP280;40937;53.594;10.034;2022-12-31T05:56:53;100379.72;;;11.16
55038;BMP280;40937;53.594;10.034;2022-12-31T05:59:21;100381.53;;;11.16
55038;BMP280;40937;53.594;10.034;2022-12-31T06:01:47;100380.50;;;11.17
55038;BMP280;40937;53.594;10.034;2022-12-31T06:04:14;100393.72;;;11.17
55038;BMP280;40937;53.594;10.034;2022-12-31T06:06:41;100389.69;;;11.14
55038;BMP280;40937;53.594;10.034;2022-12-31T06:09:08;100385.50;;;11.13
55038;BMP280;40937;53.594;10.034;2022-12-31T06:11:34;100389.69;;;11.14
55038;BMP280;40937;53.594;10.034;2022-12-31T06:14:01;100390.19;;;11.11
55038;BMP280;40937;53.594;10.034;2022-12-31T06:16:30;100385.16;;;11.09
55038;BMP280;40937;53.594;10.034;2022-12-31T06:18:58;100391.03;;;11.11
55038;BMP280;40937;53.594;10.034;2022-12-31T06:21:28;100395.47;;;11.11
55038;BMP280;40937;53.594;10.034;2022-12-31T06:23:54;100405.00;;;11.12
55038;BMP280;40937;53.594;10.034;2022-12-31T06:26:23;100409.25;;;11.13
55038;BMP280;40937;53.594;10.034;2022-12-31T06:28:50;100413.41;;;11.09
55038;BMP280;40937;53.594;10.034;2022-12-31T06:31:16;100413.88;;;11.06
55038;BMP280;40937;53.594;10.034;2022-12-31T06:33:44;100405.97;;;11.06
55038;BMP280;40937;53.594;10.034;2022-12-31T06:36:13;100412.28;;;11.05
55038;BMP280;40937;53.594;10.034;2022-12-31T06:38:41;100405.66;;;11.02
55038;BMP280;40937;53.594;10.034;2022-12-31T06:41:10;100414.38;;;11.03
55038;BMP280;40937;53.594;10.034;2022-12-31T06:43:38;100411.19;;;11.01
55038;BMP280;40937;53.594;10.034;2022-12-31T06:46:06;100402.47;;;11.00
55038;BMP280;40937;53.594;10.034;2022-12-31T06:48:34;100405.34;;;10.99
55038;BMP280;40937;53.594;10.034;2022-12-31T06:51:04;100397.44;;;10.99
55038;BMP280;40937;53.594;10.034;2022-12-31T06:53:31;100399.50;;;10.97
55038;BMP280;40937;53.594;10.034;2022-12-31T06:56:04;100398.72;;;10.96
55038;BMP280;40937;53.594;10.034;2022-12-31T06:58:31;100395.53;;;10.94
55038;BMP280;40937;53.594;10.034;2022-12-31T07:01:05;100397.13;;;10.95
55038;BMP280;40937;53.594;10.034;2022-12-31T07:03:36;100405.25;;;10.94
55038;BMP280;40937;53.594;10.034;2022-12-31T07:06:11;100388.66;;;10.93
55038;BMP280;40937;53.594;10.034;2022-12-31T07:08:45;100389.44;;;10.94
55038;BMP280;40937;53.594;10.034;2022-12-31T07:11:17;100386.78;;;10.94
55038;BMP280;40937;53.594;10.034;2022-12-31T07:13:52;100393.13;;;10.93
55038;BMP280;40937;53.594;10.034;2022-12-31T07:16:33;100404.94;;;10.90
55038;BMP280;40937;53.594;10.034;2022-12-31T07:19:09;100406.78;;;10.89
55038;BMP280;40937;53.594;10.034;2022-12-31T07:21:40;100413.91;;;10.89
55038;BMP280;40937;53.594;10.034;2022-12-31T07:24:08;100422.06;;;10.87
55038;BMP280;40937;53.594;10.034;2022-12-31T07:26:46;100437.91;;;10.87
55038;BMP280;40937;53.594;10.034;2022-12-31T07:29:20;100428.16;;;10.88
55038;BMP280;40937;53.594;10.034;2022-12-31T07:31:58;100424.16;;;10.85
55038;BMP280;40937;53.594;10.034;2022-12-31T07:34:33;100418.88;;;10.85
55038;BMP280;40937;53.594;10.034;2022-12-31T07:37:07;100424.16;;;10.85
55038;BMP280;40937;53.594;10.034;2022-12-31T07:39:40;100434.72;;;10.85
55038;BMP280;40937;53.594;10.034;2022-12-31T07:42:15;100441.25;;;10.83
55038;BMP280;40937;53.594;10.034;2022-12-31T07:44:55;100434.72;;;10.85
55038;BMP280;40937;53.594;10.034;2022-12-31T07:47:24;100441.81;;;10.85
55038;BMP280;40937;53.594;10.034;2022-12-31T07:49:52;100427.81;;;10.84
55038;BMP280;40937;53.594;10.034;2022-12-31T07:52:21;100436.78;;;10.83
55038;BMP280;40937;53.594;10.034;2022-12-31T07:54:48;100440.78;;;10.86
55038;BMP280;40937;53.594;10.034;2022-12-31T07:57:17;100433.09;;;10.84
55038;BMP280;40937;53.594;10.034;2022-12-31T07:59:57;100432.31;;;10.84
55038;BMP280;40937;53.594;10.034;2022-12-31T08:02:39;100427.03;;;10.84
55038;BMP280;40937;53.594;10.034;2022-12-31T08:05:22;100438.38;;;10.84
55038;BMP280;40937;53.594;10.034;2022-12-31T08:07:57;100433.09;;;10.84
55038;BMP280;40937;53.594;10.034;2022-12-31T08:10:31;100442.28;;;10.82
55038;BMP280;40937;53.594;10.034;2022-12-31T08:13:02;100449.41;;;10.81
55038;BMP280;40937;53.594;10.034;2022-12-31T08:15:29;100441.50;;;10.81
55038;BMP280;40937;53.594;10.034;2022-12-31T08:17:56;100433.59;;;10.81
55038;BMP280;40937;53.594;10.034;2022-12-31T08:20:24;100427.25;;;10.82
55038;BMP280;40937;53.594;10.034;2022-12-31T08:23:06;100412.47;;;10.81
55038;BMP280;40937;53.594;10.034;2022-12-31T08:25:39;100423.59;;;10.83
55038;BMP280;40937;53.594;10.034;2022-12-31T08:28:15;100442.38;;;10.87
55038;BMP280;40937;53.594;10.034;2022-12-31T08:30:58;100433.97;;;10.90
55038;BMP280;40937;53.594;10.034;2022-12-31T08:33:29;100428.97;;;10.88
55038;BMP280;40937;53.594;10.034;2022-12-31T08:36:11;100428.97;;;10.88
55038;BMP280;40937;53.594;10.034;2022-12-31T08:38:46;100432.63;;;10.87
55038;BMP280;40937;53.594;10.034;2022-12-31T08:41:21;100445.59;;;10.89
55038;BMP280;40937;53.594;10.034;2022-12-31T08:43:59;100451.66;;;10.89
55038;BMP280;40937;53.594;10.034;2022-12-31T08:46:31;100443.50;;;10.91
55038;BMP280;40937;53.594;10.034;2022-12-31T08:49:00;100453.81;;;10.93
55038;BMP280;40937;53.594;10.034;2022-12-31T08:51:27;100453.59;;;10.94
55038;BMP280;40937;53.594;10.034;2022-12-31T08:53:56;100457.03;;;10.95
55038;BMP280;40937;53.594;10.034;2022-12-31T08:56:28;100447.25;;;10.95
55038;BMP280;40937;53.594;10.034;2022-12-31T08:59:06;100434.88;;;10.96
55038;BMP280;40937;53.594;10.034;2022-12-31T09:01:45;100425.91;;;10.97
55038;BMP280;40937;53.594;10.034;2022-12-31T09:04:21;100432.78;;;10.98
55038;BMP280;40937;53.594;10.034;2022-12-31T09:06:55;100440.44;;;10.99
55038;BMP280;40937;53.594;10.034;2022-12-31T09:09:32;100430.16;;;10.98
55038;BMP280;40937;53.594;10.034;2022-12-31T09:12:05;100434.16;;;11.00
55038;BMP280;40937;53.594;10.034;2022-12-31T09:14:44;100440.22;;;11.01
55038;BMP280;40937;53.594;10.034;2022-12-31T09:17:43;100444.47;;;11.02
55038;BMP280;40937;53.594;10.034;2022-12-31T09:20:16;100447.16;;;11.24
55038;BMP280;40937;53.594;10.034;2022-12-31T09:22:45;100445.00;;;12.41
55038;BMP280;40937;53.594;10.034;2022-12-31T09:25:15;100439.53;;;13.33
55038;BMP280;40937;53.594;10.034;2022-12-31T09:27:46;100447.72;;;14.10
55038;BMP280;40937;53.594;10.034;2022-12-31T09:30:17;100455.91;;;13.98
55038;BMP280;40937;53.594;10.034;2022-12-31T09:32:50;100442.06;;;13.70
55038;BMP280;40937;53.594;10.034;2022-12-31T09:35:26;100447.03;;;13.51
55038;BMP280;40937;53.594;10.034;2022-12-31T09:37:58;100454.88;;;13.26
55038;BMP280;40937;53.594;10.034;2022-12-31T09:40:49;100442.56;;;13.04
55038;BMP280;40937;53.594;10.034;2022-12-31T09:47:00;100459.53;;;12.71
55038;BMP280;40937;53.594;10.034;2022-12-31T09:49:51;100462.09;;;12.56
55038;BMP280;40937;53.594;10.034;2022-12-31T09:52:33;100456.16;;;12.43
55038;BMP280;40937;53.594;10.034;2022-12-31T09:55:29;100467.19;;;12.35
55038;BMP280;40937;53.594;10.034;2022-12-31T09:58:26;100458.59;;;12.23
55038;BMP280;40937;53.594;10.034;2022-12-31T10:01:01;100456.59;;;12.35
55038;BMP280;40937;53.594;10.034;2022-12-31T10:03:38;100457.03;;;12.22
55038;BMP280;40937;53.594;10.034;2022-12-31T10:06:19;100449.34;;;12.20
55038;BMP280;40937;53.594;10.034;2022-12-31T10:09:05;100445.03;;;12.14
55038;BMP280;40937;53.594;10.034;2022-12-31T10:11:49;100437.34;;;12.13
55038;BMP280;40937;53.594;10.034;2022-12-31T10:14:32;100437.56;;;12.06
55038;BMP280;40937;53.594;10.034;2022-12-31T10:17:10;100447.03;;;12.02
55038;BMP280;40937;53.594;10.034;2022-12-31T10:20:09;100436.66;;;11.95
55038;BMP280;40937;53.594;10.034;2022-12-31T10:22:53;100436.06;;;11.88
55038;BMP280;40937;53.594;10.034;2022-12-31T10:25:37;100432.03;;;11.85
55038;BMP280;40937;53.594;10.034;2022-12-31T10:28:14;100439.16;;;11.80
55038;BMP280;40937;53.594;10.034;2022-12-31T10:30:51;100424.88;;;11.81
55038;BMP280;40937;53.594;10.034;2022-12-31T10:33:31;100428.09;;;11.83
55038;BMP280;40937;53.594;10.034;2022-12-31T10:36:05;100425.94;;;11.80
55038;BMP280;40937;53.594;10.034;2022-12-31T10:38:45;100418.47;;;11.77
55038;BMP280;40937;53.594;10.034;2022-12-31T10:41:43;100415.28;;;11.75
55038;BMP280;40937;53.594;10.034;2022-12-31T10:44:34;100434.34;;;11.77
55038;BMP280;40937;53.594;10.034;2022-12-31T10:50:48;100431.16;;;11.75
55038;BMP280;40937;53.594;10.034;2022-12-31T10:53:57;100433.78;;;11.75
55038;BMP280;40937;53.594;10.034;2022-12-31T11:02:41;100407.69;;;11.78
55038;BMP280;40937;53.594;10.034;2022-12-31T11:08:36;100405.81;;;11.79
55038;BMP280;40937;53.594;10.034;2022-12-31T11:11:18;100402.38;;;11.78
55038;BMP280;40937;53.594;10.034;2022-12-31T11:14:01;100406.59;;;11.79
55038;BMP280;40937;53.594;10.034;2022-12-31T11:16:40;100404.03;;;11.84
55038;BMP280;40937;53.594;10.034;2022-12-31T11:19:16;100414.13;;;11.87
55038;BMP280;40937;53.594;10.034;2022-12-31T11:21:56;100416.53;;;11.89
55038;BMP280;40937;53.594;10.034;2022-12-31T11:24:37;100438.47;;;11.89
55038;BMP280;40937;53.594;10.034;2022-12-31T11:27:20;100421.53;;;11.90
55038;BMP280;40937;53.594;10.034;2022-12-31T11:30:02;100424.97;;;11.91
55038;BMP280;40937;53.594;10.034;2022-12-31T11:32:39;100420.31;;;11.98
55038;BMP280;40937;53.594;10.034;2022-12-31T11:35:19;100418.22;;;12.00
55038;BMP280;40937;53.594;10.034;2022-12-31T11:37:49;100427.50;;;12.03
55038;BMP280;40937;53.594;10.034;2022-12-31T11:40:31;100436.25;;;12.08
55038;BMP280;40937;53.594;10.034;2022-12-31T11:43:01;100435.78;;;12.12
55038;BMP280;40937;53.594;10.034;2022-12-31T11:45:46;100436.88;;;12.16
55038;BMP280;40937;53.594;10.034;2022-12-31T11:48:21;100446.69;;;12.20
55038;BMP280;40937;53.594;10.034;2022-12-31T11:51:01;100452.88;;;12.31
55038;BMP280;40937;53.594;10.034;2022-12-31T11:53:56;100445.22;;;12.35
55038;BMP280;40937;53.594;10.034;2022-12-31T11:56:32;100439.19;;;12.39
55038;BMP280;40937;53.594;10.034;2022-12-31T11:59:00;100425.97;;;12.39
55038;BMP280;40937;53.594;10.034;2022-12-31T12:01:31;100436.03;;;12.42
55038;BMP280;40937;53.594;10.034;2022-12-31T12:03:59;100425.47;;;12.42
55038;BMP280;40937;53.594;10.034;2022-12-31T12:06:28;100426.00;;;12.44
55038;BMP280;40937;53.594;10.034;2022-12-31T12:08:58;100422.88;;;12.47
55038;BMP280;40937;53.594;10.034;2022-12-31T12:11:28;100412.84;;;12.49
55038;BMP280;40937;53.594;10.034;2022-12-31T12:13:57;100405.19;;;12.53
55038;BMP280;40937;53.594;10.034;2022-12-31T12:16:24;100394.88;;;12.57
55038;BMP280;40937;53.594;10.034;2022-12-31T12:19:01;100392.81;;;12.59
55038;BMP280;40937;53.594;10.034;2022-12-31T12:21:28;100401.06;;;12.67
55038;BMP280;40937;53.594;10.034;2022-12-31T12:23:57;100404.22;;;12.69
55038;BMP280;40937;53.594;10.034;2022-12-31T12:26:33;100406.13;;;12.74
55038;BMP280;40937;53.594;10.034;2022-12-31T12:29:07;100406.16;;;12.79
55038;BMP280;40937;53.594;10.034;2022-12-31T12:31:34;100391.63;;;12.82
55038;BMP280;40937;53.594;10.034;2022-12-31T12:34:02;100405.41;;;12.84
55038;BMP280;40937;53.594;10.034;2022-12-31T12:36:30;100407.28;;;12.88
55038;BMP280;40937;53.594;10.034;2022-12-31T12:39:00;100403.56;;;12.89
55038;BMP280;40937;53.594;10.034;2022-12-31T12:41:28;100403.88;;;12.93
55038;BMP280;40937;53.594;10.034;2022-12-31T12:44:02;100408.34;;;12.93
55038;BMP280;40937;53.594;10.034;2022-12-31T12:46:31;100402.00;;;12.94
55038;BMP280;40937;53.594;10.034;2022-12-31T12:48:59;100388.78;;;12.94
55038;BMP280;40937;53.594;10.034;2022-12-31T12:51:36;100385.88;;;12.95
55038;BMP280;40937;53.594;10.034;2022-12-31T12:54:16;100395.16;;;12.98
55038;BMP280;40937;53.594;10.034;2022-12-31T12:56:53;100399.94;;;13.01
55038;BMP280;40937;53.594;10.034;2022-12-31T13:03:00;100399.41;;;13.04
55038;BMP280;40937;53.594;10.034;2022-12-31T13:05:40;100398.66;;;13.08
55038;BMP280;40937;53.594;10.034;2022-12-31T13:08:19;100411.09;;;13.08
55038;BMP280;40937;53.594;10.034;2022-12-31T13:10:55;100414.00;;;13.06
55038;BMP280;40937;53.594;10.034;2022-12-31T13:13:35;100425.16;;;13.08
55038;BMP280;40937;53.594;10.034;2022-12-31T13:16:12;100406.59;;;13.08
55038;BMP280;40937;53.594;10.034;2022-12-31T13:18:51;100419.31;;;13.12
55038;BMP280;40937;53.594;10.034;2022-12-31T13:21:34;100418.25;;;13.13
55038;BMP280;40937;53.594;10.034;2022-12-31T13:24:15;100417.47;;;13.12
55038;BMP280;40937;53.594;10.034;2022-12-31T13:26:49;100429.91;;;13.12
55038;BMP280;40937;53.594;10.034;2022-12-31T13:29:23;100426.44;;;13.11
55038;BMP280;40937;53.594;10.034;2022-12-31T13:31:53;100415.84;;;13.11
55038;BMP280;40937;53.594;10.034;2022-12-31T13:34:26;100423.31;;;13.19
55038;BMP280;40937;53.594;10.034;2022-12-31T13:36:56;100417.47;;;13.17
55038;BMP280;40937;53.594;10.034;2022-12-31T13:39:26;100414.81;;;13.17
55038;BMP280;40937;53.594;10.034;2022-12-31T13:41:57;100418.84;;;13.20
55038;BMP280;40937;53.594;10.034;2022-12-31T13:44:30;100419.09;;;13.18
55038;BMP280;40937;53.594;10.034;2022-12-31T13:47:03;100421.72;;;13.18
55038;BMP280;40937;53.594;10.034;2022-12-31T13:49:38;100422.00;;;13.17
55038;BMP280;40937;53.594;10.034;2022-12-31T13:52:23;100435.25;;;13.17
55038;BMP280;40937;53.594;10.034;2022-12-31T13:54:55;100419.63;;;13.20
55038;BMP280;40937;53.594;10.034;2022-12-31T13:57:33;100429.13;;;13.16
55038;BMP280;40937;53.594;10.034;2022-12-31T14:00:05;100442.66;;;13.20
55038;BMP280;40937;53.594;10.034;2022-12-31T14:02:39;100442.69;;;13.25
55038;BMP280;40937;53.594;10.034;2022-12-31T14:05:13;100447.19;;;13.24
55038;BMP280;40937;53.594;10.034;2022-12-31T14:07:47;100434.47;;;13.21
55038;BMP280;40937;53.594;10.034;2022-12-31T14:10:19;100446.09;;;13.20
55038;BMP280;40937;53.594;10.034;2022-12-31T14:12:55;100438.41;;;13.19
55038;BMP280;40937;53.594;10.034;2022-12-31T14:15:30;100441.31;;;13.17
55038;BMP280;40937;53.594;10.034;2022-12-31T14:18:03;100449.78;;;13.19
55038;BMP280;40937;53.594;10.034;2022-12-31T14:20:41;100451.91;;;13.17
55038;BMP280;40937;53.594;10.034;2022-12-31T14:23:19;100446.09;;;13.20
55038;BMP280;40937;53.594;10.034;2022-12-31T14:25:49;100457.19;;;13.17
55038;BMP280;40937;53.594;10.034;2022-12-31T14:28:20;100451.16;;;13.17
55038;BMP280;40937;53.594;10.034;2022-12-31T14:30:55;100452.97;;;13.16
55038;BMP280;40937;53.594;10.034;2022-12-31T14:33:32;100450.88;;;13.18
55038;BMP280;40937;53.594;10.034;2022-12-31T14:36:12;100447.97;;;13.20
55038;BMP280;40937;53.594;10.034;2022-12-31T14:38:54;100458.31;;;13.21
55038;BMP280;40937;53.594;10.034;2022-12-31T14:41:35;100454.59;;;13.22
55038;BMP280;40937;53.594;10.034;2022-12-31T14:44:15;100457.78;;;13.24
55038;BMP280;40937;53.594;10.034;2022-12-31T14:46:57;100467.06;;;13.27
55038;BMP280;40937;53.594;10.034;2022-12-31T14:49:37;100464.16;;;13.28
55038;BMP280;40937;53.594;10.034;2022-12-31T14:52:13;100462.34;;;13.29
55038;BMP280;40937;53.594;10.034;2022-12-31T14:54:57;100455.16;;;13.29
55038;BMP280;40937;53.594;10.034;2022-12-31T14:57:26;100465.50;;;13.31
55038;BMP280;40937;53.594;10.034;2022-12-31T15:00:21;100476.63;;;13.33
55038;BMP280;40937;53.594;10.034;2022-12-31T15:02:51;100472.16;;;13.34
55038;BMP280;40937;53.594;10.034;2022-12-31T15:05:20;100475.84;;;13.33
55038;BMP280;40937;53.594;10.034;2022-12-31T15:07:55;100473.19;;;13.38
55038;BMP280;40937;53.594;10.034;2022-12-31T15:10:35;100472.16;;;13.34
55038;BMP280;40937;53.594;10.034;2022-12-31T15:13:06;100484.31;;;13.35
55038;BMP280;40937;53.594;10.034;2022-12-31T15:18:41;100478.50;;;13.38
55038;BMP280;40937;53.594;10.034;2022-12-31T15:21:26;100491.22;;;13.36
55038;BMP280;40937;53.594;10.034;2022-12-31T15:23:56;100498.63;;;13.34
55038;BMP280;40937;53.594;10.034;2022-12-31T15:26:26;100506.59;;;13.34
55038;BMP280;40937;53.594;10.034;2022-12-31T15:28:57;100505.75;;;13.33
55038;BMP280;40937;53.594;10.034;2022-12-31T15:31:25;100507.13;;;13.36
55038;BMP280;40937;53.594;10.034;2022-12-31T15:33:56;100503.69;;;13.35
55038;BMP280;40937;53.594;10.034;2022-12-31T15:36:25;100507.63;;;13.33
55038;BMP280;40937;53.594;10.034;2022-12-31T15:39:04;100509.47;;;13.32
55038;BMP280;40937;53.594;10.034;2022-12-31T15:41:37;100516.16;;;13.40
55038;BMP280;40937;53.594;10.034;2022-12-31T15:44:13;100519.84;;;13.34